createdAt,value
2022-10-13T00:00:21.187Z,10.40
2022-10-13T00:02:49.053Z,10.40
2022-10-13T00:05:17.045Z,10.40
2022-10-13T00:07:44.997Z,10.30
2022-10-13T00:10:14.199Z,10.20
2022-10-13T00:12:42.304Z,10.20
2022-10-13T00:15:10.904Z,10.10
2022-10-13T00:17:38.783Z,10.10
2022-10-13T00:20:07.258Z,10.10
2022-10-13T00:22:35.227Z,10.10
2022-10-13T00:25:03.088Z,10.10
2022-10-13T00:27:32.358Z,10.10
2022-10-13T00:30:00.208Z,10.20
2022-10-13T00:32:28.091Z,10.20
2022-10-13T00:34:57.702Z,10.20
2022-10-13T00:37:25.711Z,10.20
2022-10-13T00:39:53.608Z,10.20
2022-10-13T00:42:23.376Z,10.30
2022-10-13T00:45:12.508Z,10.20
2022-10-13T00:47:42.857Z,10.20
2022-10-13T00:50:13.081Z,10.20
2022-10-13T00:52:42.382Z,10.20
2022-10-13T00:55:11.693Z,10.10
2022-10-13T00:57:41.525Z,10.20
2022-10-13T01:00:10.157Z,10.10
2022-10-13T01:02:38.157Z,10.10
2022-10-13T01:05:08.184Z,10.10
2022-10-13T01:07:36.264Z,10.00
2022-10-13T01:10:05.065Z,10.00
2022-10-13T01:12:39.384Z,10.10
2022-10-13T01:15:11.527Z,10.10
2022-10-13T01:17:44.505Z,10.10
2022-10-13T01:20:41.071Z,10.00
2022-10-13T01:23:19.552Z,10.00
2022-10-13T01:26:04.012Z,10.10
2022-10-13T01:28:41.711Z,10.10
2022-10-13T01:31:14.357Z,10.00
2022-10-13T01:33:44.590Z,10.10
2022-10-13T01:36:17.286Z,10.10
2022-10-13T01:38:48.438Z,10.10
2022-10-13T01:41:20.050Z,8.90
2022-10-13T01:43:50.098Z,10.10
2022-10-13T01:46:21.231Z,10.00
2022-10-13T01:48:50.053Z,9.80
2022-10-13T01:51:20.237Z,10.00
2022-10-13T01:53:48.535Z,10.00
2022-10-13T01:56:16.605Z,10.00
2022-10-13T01:58:45.637Z,10.00
2022-10-13T02:01:18.517Z,10.00
2022-10-13T02:03:53.696Z,10.00
2022-10-13T02:06:22.879Z,9.90
2022-10-13T02:08:56.292Z,9.90
2022-10-13T02:11:24.904Z,9.90
2022-10-13T02:13:55.217Z,9.90
2022-10-13T02:16:26.213Z,9.90
2022-10-13T02:18:56.701Z,9.80
2022-10-13T02:21:24.861Z,9.80
2022-10-13T02:23:52.785Z,9.80
2022-10-13T02:26:20.650Z,9.80
2022-10-13T02:28:48.527Z,9.80
2022-10-13T02:31:16.519Z,9.80
2022-10-13T02:33:44.400Z,9.80
2022-10-13T02:36:13.614Z,9.80
2022-10-13T02:38:41.443Z,9.80
2022-10-13T02:41:09.355Z,9.80
2022-10-13T02:43:38.712Z,9.70
2022-10-13T02:46:07.905Z,9.80
2022-10-13T02:48:35.819Z,9.80
2022-10-13T02:51:03.681Z,9.80
2022-10-13T02:53:32.984Z,9.80
2022-10-13T02:56:00.875Z,9.80
2022-10-13T02:58:28.782Z,9.80
2022-10-13T03:00:56.724Z,9.80
2022-10-13T03:03:26.492Z,9.80
2022-10-13T03:05:54.460Z,9.70
2022-10-13T03:08:22.359Z,9.80
2022-10-13T03:10:51.652Z,9.80
2022-10-13T03:13:19.780Z,9.70
2022-10-13T03:15:48.041Z,9.70
2022-10-13T03:18:15.940Z,9.70
2022-10-13T03:20:43.891Z,9.70
2022-10-13T03:23:11.992Z,9.80
2022-10-13T03:25:39.931Z,9.70
2022-10-13T03:28:09.694Z,9.70
2022-10-13T03:30:37.594Z,9.70
2022-10-13T03:33:05.713Z,9.70
2022-10-13T03:35:33.845Z,9.70
2022-10-13T03:38:01.749Z,9.70
2022-10-13T03:40:29.722Z,9.70
2022-10-13T03:42:57.625Z,9.70
2022-10-13T03:45:26.893Z,9.70
2022-10-13T03:47:54.748Z,9.70
2022-10-13T03:50:22.623Z,9.60
2022-10-13T03:52:50.541Z,9.80
2022-10-13T03:55:18.447Z,9.70
2022-10-13T03:57:46.326Z,9.80
2022-10-13T04:00:15.053Z,9.70
2022-10-13T04:02:44.564Z,9.80
2022-10-13T04:05:12.424Z,9.80
2022-10-13T04:07:40.323Z,9.80
2022-10-13T04:10:11.413Z,9.80
2022-10-13T04:12:39.731Z,9.90
2022-10-13T04:15:08.415Z,9.90
2022-10-13T04:17:36.463Z,9.90
2022-10-13T04:20:07.493Z,9.90
2022-10-13T04:22:35.485Z,10.00
2022-10-13T04:25:03.498Z,10.00
2022-10-13T04:27:32.592Z,10.00
2022-10-13T04:30:00.605Z,10.00
2022-10-13T04:32:28.944Z,10.00
2022-10-13T04:34:56.873Z,10.10
2022-10-13T04:37:26.527Z,10.10
2022-10-13T04:39:54.505Z,10.10
2022-10-13T04:42:22.743Z,10.10
2022-10-13T04:44:50.840Z,10.00
2022-10-13T04:47:18.725Z,10.00
2022-10-13T04:49:46.776Z,10.00
2022-10-13T04:52:14.746Z,10.00
2022-10-13T04:54:44.387Z,10.00
2022-10-13T04:57:12.331Z,10.00
2022-10-13T04:59:40.374Z,10.00
2022-10-13T05:02:09.366Z,10.00
2022-10-13T05:04:37.354Z,10.00
2022-10-13T05:07:17.564Z,10.00
2022-10-13T05:09:47.782Z,10.00
2022-10-13T05:12:16.234Z,10.00
2022-10-13T05:14:44.065Z,10.00
2022-10-13T05:17:11.978Z,10.00
2022-10-13T05:19:39.854Z,10.00
2022-10-13T05:22:07.761Z,10.00
2022-10-13T05:24:37.483Z,10.00
2022-10-13T05:27:08.149Z,10.00
2022-10-13T05:29:36.410Z,10.00
2022-10-13T05:32:04.488Z,10.00
2022-10-13T05:34:32.898Z,10.00
2022-10-13T05:37:01.253Z,10.00
2022-10-13T05:39:29.323Z,10.10
2022-10-13T05:41:59.913Z,10.10
2022-10-13T05:44:29.843Z,10.10
2022-10-13T05:46:57.828Z,10.10
2022-10-13T05:49:25.932Z,10.20
2022-10-13T05:51:54.850Z,10.10
2022-10-13T05:54:24.393Z,10.20
2022-10-13T05:56:53.867Z,10.20
2022-10-13T05:59:26.921Z,10.20
2022-10-13T06:01:56.915Z,10.20
2022-10-13T06:04:26.764Z,10.20
2022-10-13T06:06:54.759Z,10.20
2022-10-13T06:09:22.807Z,10.20
2022-10-13T06:11:50.892Z,10.20
2022-10-13T06:14:18.791Z,10.30
2022-10-13T06:16:46.837Z,10.30
2022-10-13T06:19:16.369Z,10.30
2022-10-13T06:21:44.361Z,10.30
2022-10-13T06:24:13.547Z,10.30
2022-10-13T06:26:41.774Z,10.40
2022-10-13T06:29:10.027Z,10.40
2022-10-13T06:31:40.048Z,10.40
2022-10-13T06:34:08.049Z,10.40
2022-10-13T06:36:38.108Z,10.40
2022-10-13T06:39:06.093Z,10.40
2022-10-13T06:41:34.083Z,10.40
2022-10-13T06:44:02.043Z,10.50
2022-10-13T06:46:29.978Z,10.50
2022-10-13T06:49:02.186Z,10.50
2022-10-13T06:51:30.120Z,10.50
2022-10-13T06:53:59.599Z,10.50
2022-10-13T06:56:27.561Z,10.50
2022-10-13T06:58:55.570Z,10.50
2022-10-13T07:01:23.576Z,10.50
2022-10-13T07:03:52.014Z,10.50
2022-10-13T07:06:19.967Z,10.50
2022-10-13T07:08:47.951Z,10.60
2022-10-13T07:11:18.552Z,10.50
2022-10-13T07:13:47.314Z,10.60
2022-10-13T07:16:15.716Z,10.60
2022-10-13T07:18:43.762Z,10.60
2022-10-13T07:21:11.713Z,10.60
2022-10-13T07:23:39.802Z,10.60
2022-10-13T07:26:08.542Z,10.60
2022-10-13T07:28:38.313Z,10.70
2022-10-13T07:31:08.245Z,10.70
2022-10-13T07:33:36.184Z,10.70
2022-10-13T07:36:04.187Z,10.70
2022-10-13T07:38:32.363Z,10.80
2022-10-13T07:41:01.362Z,10.80
2022-10-13T07:43:29.334Z,10.90
2022-10-13T07:46:00.484Z,10.90
2022-10-13T07:48:28.790Z,10.90
2022-10-13T07:50:56.721Z,10.90
2022-10-13T07:53:24.771Z,10.90
2022-10-13T07:55:54.474Z,11.00
2022-10-13T07:58:22.471Z,11.00
2022-10-13T08:00:56.567Z,11.00
2022-10-13T08:03:26.021Z,11.10
2022-10-13T08:05:54.703Z,11.10
2022-10-13T08:08:23.052Z,11.10
2022-10-13T08:10:50.976Z,11.10
2022-10-13T08:13:18.891Z,11.20
2022-10-13T08:15:47.295Z,11.20
2022-10-13T08:18:15.680Z,11.30
2022-10-13T08:20:45.559Z,11.30
2022-10-13T08:23:13.681Z,11.30
2022-10-13T08:25:42.250Z,11.40
2022-10-13T08:28:12.801Z,11.40
2022-10-13T08:30:40.886Z,11.40
2022-10-13T08:33:08.900Z,11.50
2022-10-13T08:35:36.833Z,11.50
2022-10-13T08:38:06.297Z,11.50
2022-10-13T08:40:34.260Z,11.50
2022-10-13T08:43:02.304Z,11.60
2022-10-13T08:45:46.665Z,11.60
2022-10-13T08:48:16.915Z,11.60
2022-10-13T08:50:46.899Z,11.70
2022-10-13T08:53:20.166Z,11.70
2022-10-13T08:55:49.608Z,11.80
2022-10-13T08:58:20.378Z,11.80
2022-10-13T09:00:48.266Z,11.90
2022-10-13T09:03:24.594Z,11.90
2022-10-13T09:05:59.407Z,12.00
2022-10-13T09:08:39.593Z,11.90
2022-10-13T09:11:07.619Z,12.10
2022-10-13T09:13:35.543Z,12.10
2022-10-13T09:16:03.552Z,12.10
2022-10-13T09:18:32.245Z,12.20
2022-10-13T09:21:10.385Z,12.20
2022-10-13T09:23:41.934Z,12.30
2022-10-13T09:26:16.810Z,12.30
2022-10-13T09:28:44.781Z,12.30
2022-10-13T09:31:16.866Z,12.40
2022-10-13T09:33:44.970Z,12.40
2022-10-13T09:36:14.106Z,12.40
2022-10-13T09:38:46.279Z,12.50
2022-10-13T09:41:16.769Z,12.50
2022-10-13T09:43:58.273Z,12.60
2022-10-13T09:46:27.716Z,12.70
2022-10-13T09:48:57.440Z,12.80
2022-10-13T09:51:31.223Z,12.90
2022-10-13T09:54:00.571Z,13.00
2022-10-13T09:56:32.118Z,13.10
2022-10-13T09:59:06.920Z,13.10
2022-10-13T10:01:36.241Z,13.20
2022-10-13T10:04:07.545Z,13.20
2022-10-13T10:06:35.899Z,13.30
2022-10-13T10:09:07.410Z,13.30
2022-10-13T10:11:38.481Z,13.30
2022-10-13T10:14:14.720Z,13.30
2022-10-13T10:16:44.192Z,13.30
2022-10-13T10:19:16.487Z,13.30
2022-10-13T10:21:47.247Z,13.40
2022-10-13T10:24:20.933Z,13.40
2022-10-13T10:26:50.874Z,13.40
2022-10-13T10:29:23.408Z,13.40
2022-10-13T10:32:09.305Z,13.40
2022-10-13T10:34:38.903Z,13.40
2022-10-13T10:37:21.362Z,13.50
2022-10-13T10:39:57.281Z,13.50
2022-10-13T10:42:37.598Z,13.50
2022-10-13T10:45:10.565Z,13.50
2022-10-13T10:47:40.784Z,13.50
2022-10-13T10:50:14.243Z,13.50
2022-10-13T10:52:46.552Z,13.60
2022-10-13T10:55:20.489Z,13.60
2022-10-13T10:57:54.061Z,13.60
2022-10-13T11:00:23.631Z,13.70
2022-10-13T11:02:54.379Z,13.70
2022-10-13T11:05:22.791Z,13.80
2022-10-13T11:07:58.633Z,13.80
2022-10-13T11:10:28.643Z,13.80
2022-10-13T11:13:26.920Z,13.90
2022-10-13T11:15:55.626Z,13.90
2022-10-13T11:18:38.395Z,13.90
2022-10-13T11:21:06.391Z,14.00
2022-10-13T11:23:35.432Z,14.00
2022-10-13T11:26:36.937Z,14.00
2022-10-13T11:29:16.375Z,14.10
2022-10-13T11:31:49.272Z,14.20
2022-10-13T11:34:27.581Z,14.30
2022-10-13T11:36:57.156Z,14.30
2022-10-13T11:39:59.974Z,14.40
2022-10-13T11:42:48.837Z,14.50
2022-10-13T11:45:25.631Z,14.60
2022-10-13T11:48:10.801Z,14.60
2022-10-13T11:50:44.178Z,14.60
2022-10-13T11:53:16.229Z,14.60
2022-10-13T11:55:46.508Z,14.70
2022-10-13T11:58:15.952Z,14.70
2022-10-13T12:00:56.261Z,14.70
2022-10-13T12:03:26.305Z,14.70
2022-10-13T12:05:54.586Z,14.70
2022-10-13T12:08:22.824Z,14.70
2022-10-13T12:10:55.561Z,14.60
2022-10-13T12:13:25.449Z,14.70
2022-10-13T12:16:00.720Z,14.70
2022-10-13T12:18:30.056Z,14.70
2022-10-13T12:20:58.911Z,14.70
2022-10-13T12:23:27.164Z,14.80
2022-10-13T12:25:58.393Z,14.80
2022-10-13T12:28:27.388Z,14.80
2022-10-13T12:30:56.497Z,14.80
2022-10-13T12:33:27.975Z,14.80
2022-10-13T12:35:55.971Z,14.80
2022-10-13T12:38:24.339Z,14.80
2022-10-13T12:40:53.494Z,14.80
2022-10-13T12:43:23.848Z,14.80
2022-10-13T12:45:51.867Z,14.90
2022-10-13T12:48:34.849Z,14.90
2022-10-13T12:51:19.535Z,15.00
2022-10-13T12:53:48.645Z,15.10
2022-10-13T12:56:21.246Z,15.20
2022-10-13T12:58:49.246Z,15.30
2022-10-13T13:01:26.301Z,15.30
2022-10-13T13:03:57.244Z,15.50
2022-10-13T13:06:30.683Z,15.30
2022-10-13T13:09:29.288Z,15.40
2022-10-13T13:12:05.057Z,15.30
2022-10-13T13:14:36.461Z,15.40
2022-10-13T13:17:09.543Z,15.30
2022-10-13T13:19:39.400Z,15.30
2022-10-13T13:22:07.653Z,15.30
2022-10-13T13:24:40.061Z,15.30
2022-10-13T13:27:17.249Z,15.30
2022-10-13T13:29:45.615Z,15.30
2022-10-13T13:32:14.671Z,15.30
2022-10-13T13:34:44.610Z,15.30
2022-10-13T13:37:14.312Z,15.20
2022-10-13T13:39:42.346Z,15.20
2022-10-13T13:42:13.905Z,15.20
2022-10-13T13:44:42.384Z,15.10
2022-10-13T13:47:15.879Z,15.10
2022-10-13T13:49:45.341Z,15.10
2022-10-13T13:52:13.408Z,15.10
2022-10-13T13:54:44.762Z,15.10
2022-10-13T13:57:13.211Z,15.10
2022-10-13T13:59:42.011Z,15.10
2022-10-13T14:02:13.728Z,15.00
2022-10-13T14:04:42.233Z,15.00
2022-10-13T14:07:11.570Z,15.00
2022-10-13T14:09:39.912Z,15.00
2022-10-13T14:12:07.960Z,14.90
2022-10-13T14:14:36.077Z,14.90
2022-10-13T14:17:04.676Z,14.90
2022-10-13T14:19:32.894Z,14.90
2022-10-13T14:22:03.701Z,14.90
2022-10-13T14:24:36.530Z,14.80
2022-10-13T14:27:08.088Z,14.80
2022-10-13T14:29:36.234Z,14.70
2022-10-13T14:32:04.705Z,14.80
2022-10-13T14:34:33.593Z,14.70
2022-10-13T14:37:01.543Z,14.70
2022-10-13T14:39:29.717Z,14.60
2022-10-13T14:41:59.051Z,14.60
2022-10-13T14:44:27.047Z,14.50
2022-10-13T14:46:55.085Z,14.50
2022-10-13T14:49:23.020Z,14.50
2022-10-13T14:51:50.939Z,14.40
2022-10-13T14:54:18.880Z,14.40
2022-10-13T14:56:46.877Z,14.40
2022-10-13T14:59:16.523Z,14.40
2022-10-13T15:01:44.525Z,14.40
2022-10-13T15:04:12.505Z,14.40
2022-10-13T15:06:40.828Z,14.30
2022-10-13T15:11:42.629Z,14.30
2022-10-13T15:14:10.804Z,14.30
2022-10-13T15:16:40.208Z,14.30
2022-10-13T15:19:08.215Z,14.20
2022-10-13T15:21:36.139Z,14.20
2022-10-13T15:24:04.156Z,14.20
2022-10-13T15:26:32.433Z,14.20
2022-10-13T15:29:00.376Z,14.20
2022-10-13T15:31:30.844Z,14.20
2022-10-13T15:34:00.555Z,14.10
2022-10-13T15:36:28.535Z,14.10
2022-10-13T15:38:56.495Z,14.10
2022-10-13T15:41:25.560Z,14.10
2022-10-13T15:43:53.604Z,14.10
2022-10-13T15:46:27.630Z,14.10
2022-10-13T15:48:55.774Z,14.10
2022-10-13T15:51:26.903Z,14.10
2022-10-13T15:53:55.189Z,14.10
2022-10-13T15:56:23.242Z,14.10
2022-10-13T15:58:51.204Z,14.00
2022-10-13T16:01:19.264Z,14.00
2022-10-13T16:03:47.270Z,14.00
2022-10-13T16:06:15.299Z,14.00
2022-10-13T16:08:44.852Z,14.00
2022-10-13T16:11:13.911Z,14.00
2022-10-13T16:13:42.519Z,14.00
2022-10-13T16:16:10.465Z,14.00
2022-10-13T16:18:39.232Z,14.00
2022-10-13T16:21:13.354Z,14.00
2022-10-13T16:23:46.978Z,14.00
2022-10-13T16:26:15.248Z,14.00
2022-10-13T16:28:43.292Z,14.00
2022-10-13T16:31:13.437Z,14.00
2022-10-13T16:33:41.938Z,14.00
2022-10-13T16:36:11.095Z,13.90
2022-10-13T16:38:39.116Z,13.90
2022-10-13T16:41:10.927Z,13.90
2022-10-13T16:43:41.875Z,13.90
2022-10-13T16:46:13.302Z,13.90
2022-10-13T16:48:41.809Z,13.90
2022-10-13T16:51:10.956Z,13.90
2022-10-13T16:53:39.411Z,13.90
2022-10-13T16:56:09.200Z,13.90
2022-10-13T16:58:37.221Z,13.90
2022-10-13T17:01:06.327Z,13.90
2022-10-13T17:03:34.339Z,13.80
2022-10-13T17:06:02.301Z,13.80
2022-10-13T17:08:30.395Z,13.80
2022-10-13T17:11:00.277Z,13.80
2022-10-13T17:13:29.706Z,13.80
2022-10-13T17:15:58.026Z,13.80
2022-10-13T17:18:26.730Z,13.80
2022-10-13T17:20:55.312Z,13.80
2022-10-13T17:23:23.901Z,13.80
2022-10-13T17:25:52.095Z,13.80
2022-10-13T17:28:20.532Z,13.80
2022-10-13T17:30:59.484Z,13.80
2022-10-13T17:33:27.507Z,13.80
2022-10-13T17:35:59.437Z,13.80
2022-10-13T17:38:27.408Z,13.80
2022-10-13T17:40:59.587Z,13.80
2022-10-13T17:43:27.960Z,13.80
2022-10-13T17:46:07.469Z,13.80
2022-10-13T17:48:45.417Z,13.80
2022-10-13T17:51:13.974Z,13.70
2022-10-13T17:53:43.315Z,13.70
2022-10-13T17:56:13.349Z,13.70
2022-10-13T17:58:41.764Z,13.70
2022-10-13T18:01:13.457Z,13.70
2022-10-13T18:03:45.647Z,13.70
2022-10-13T18:06:13.662Z,13.70
2022-10-13T18:08:41.773Z,13.70
2022-10-13T18:11:10.786Z,13.70
2022-10-13T18:13:38.807Z,13.70
2022-10-13T18:16:07.554Z,13.60
2022-10-13T18:18:35.833Z,13.60
2022-10-13T18:21:05.971Z,13.60
2022-10-13T18:23:34.601Z,13.60
2022-10-13T18:26:02.940Z,13.50
2022-10-13T18:28:32.059Z,13.50
2022-10-13T18:31:04.318Z,13.40
2022-10-13T18:33:32.213Z,13.40
2022-10-13T18:36:00.143Z,13.40
2022-10-13T18:38:29.427Z,13.40
2022-10-13T18:41:00.036Z,13.40
2022-10-13T18:43:27.955Z,13.40
2022-10-13T18:45:59.543Z,13.30
2022-10-13T18:48:27.454Z,13.30
2022-10-13T18:50:55.407Z,13.30
2022-10-13T18:53:23.763Z,13.30
2022-10-13T18:56:01.216Z,13.30
2022-10-13T18:58:29.088Z,13.30
2022-10-13T19:00:59.488Z,13.20
2022-10-13T19:03:27.475Z,13.20
2022-10-13T19:05:55.609Z,13.20
2022-10-13T19:08:23.615Z,13.20
2022-10-13T19:10:52.990Z,13.20
2022-10-13T19:13:20.900Z,13.20
2022-10-13T19:15:48.846Z,13.20
2022-10-13T19:18:16.811Z,13.20
2022-10-13T19:20:44.699Z,13.20
2022-10-13T19:23:14.896Z,13.20
2022-10-13T19:25:43.297Z,13.20
2022-10-13T19:28:12.972Z,13.20
2022-10-13T19:30:41.079Z,13.20
2022-10-13T19:33:09.552Z,13.20
2022-10-13T19:35:41.219Z,13.20
2022-10-13T19:38:09.671Z,13.10
2022-10-13T19:40:42.252Z,13.20
2022-10-13T19:43:11.819Z,13.20
2022-10-13T19:45:45.057Z,13.10
2022-10-13T19:48:13.130Z,13.20
2022-10-13T19:50:41.647Z,13.20
2022-10-13T19:53:09.678Z,13.10
2022-10-13T19:55:39.009Z,13.20
2022-10-13T19:58:07.225Z,13.10
2022-10-13T20:00:36.619Z,13.10
2022-10-13T20:03:04.986Z,13.20
2022-10-13T20:05:33.097Z,13.10
2022-10-13T20:08:01.096Z,13.10
2022-10-13T20:10:28.980Z,13.10
2022-10-13T20:12:57.017Z,13.10
2022-10-13T20:15:25.032Z,13.10
2022-10-13T20:17:54.615Z,13.10
2022-10-13T20:20:22.671Z,13.10
2022-10-13T20:22:50.657Z,13.10
2022-10-13T20:25:19.902Z,13.10
2022-10-13T20:27:47.874Z,13.10
2022-10-13T20:30:15.825Z,13.10
2022-10-13T20:32:43.711Z,13.10
2022-10-13T20:35:13.090Z,13.10
2022-10-13T20:37:41.075Z,13.10
2022-10-13T20:40:09.590Z,13.10
2022-10-13T20:42:37.519Z,13.10
2022-10-13T20:45:05.939Z,13.10
2022-10-13T20:47:33.852Z,13.10
2022-10-13T20:50:01.805Z,13.10
2022-10-13T20:52:31.087Z,13.10
2022-10-13T20:54:59.197Z,13.10
2022-10-13T20:57:27.222Z,13.10
2022-10-13T20:59:55.099Z,13.10
2022-10-13T21:02:23.065Z,13.10
2022-10-13T21:04:52.464Z,13.10
2022-10-13T21:07:20.670Z,13.10
2022-10-13T21:09:53.802Z,13.10
2022-10-13T21:12:21.978Z,13.10
2022-10-13T21:14:51.105Z,13.10
2022-10-13T21:17:19.245Z,13.10
2022-10-13T21:19:47.552Z,13.10
2022-10-13T21:22:15.452Z,13.00
2022-10-13T21:24:43.396Z,13.10
2022-10-13T21:27:12.681Z,13.10
2022-10-13T21:29:40.561Z,13.10
2022-10-13T21:32:08.425Z,13.10
2022-10-13T21:34:36.410Z,13.10
2022-10-13T21:37:04.299Z,13.10
2022-10-13T21:39:32.165Z,13.10
2022-10-13T21:42:00.203Z,13.10
2022-10-13T21:44:30.980Z,13.10
2022-10-13T21:46:58.887Z,13.10
2022-10-13T21:49:27.068Z,13.10
2022-10-13T21:51:54.952Z,13.00
2022-10-13T21:54:22.875Z,13.00
2022-10-13T21:56:50.805Z,13.00
2022-10-13T21:59:18.663Z,13.00
2022-10-13T22:01:47.878Z,13.00
2022-10-13T22:04:16.004Z,13.00
2022-10-13T22:06:44.381Z,13.00
2022-10-13T22:09:12.294Z,13.00
2022-10-13T22:11:40.443Z,13.00
2022-10-13T22:14:09.019Z,13.00
2022-10-13T22:16:37.957Z,13.00
2022-10-13T22:19:07.966Z,13.00
2022-10-13T22:21:37.255Z,13.00
2022-10-13T22:24:08.237Z,13.00
2022-10-13T22:26:37.009Z,13.00
2022-10-13T22:29:06.378Z,13.00
2022-10-13T22:31:34.424Z,13.00
2022-10-13T22:34:02.859Z,13.00
2022-10-13T22:36:32.444Z,13.00
2022-10-13T22:39:01.938Z,13.00
2022-10-13T22:41:30.405Z,13.00
2022-10-13T22:43:59.181Z,13.00
2022-10-13T22:46:28.579Z,13.00
2022-10-13T22:48:56.954Z,13.00
2022-10-13T22:51:27.285Z,12.90
2022-10-13T22:53:56.515Z,13.00
2022-10-13T22:56:25.694Z,13.00
2022-10-13T22:58:54.285Z,13.00
2022-10-13T23:01:22.638Z,13.00
2022-10-13T23:03:51.454Z,12.90
2022-10-13T23:06:20.765Z,13.00
2022-10-13T23:08:48.803Z,13.00
2022-10-13T23:11:18.526Z,13.00
2022-10-13T23:13:46.589Z,13.00
2022-10-13T23:16:15.884Z,13.00
2022-10-13T23:18:44.035Z,13.00
2022-10-13T23:21:13.236Z,13.00
2022-10-13T23:23:41.301Z,13.00
2022-10-13T23:26:12.864Z,13.00
2022-10-13T23:28:42.175Z,13.00
2022-10-13T23:31:12.388Z,13.00
2022-10-13T23:33:40.366Z,12.30
2022-10-13T23:36:18.868Z,13.00
2022-10-13T23:38:46.772Z,13.00
2022-10-13T23:41:15.795Z,13.00
2022-10-13T23:43:45.241Z,13.00
2022-10-13T23:46:13.391Z,13.00
2022-10-13T23:48:41.616Z,13.00
2022-10-13T23:51:13.278Z,13.00
2022-10-13T23:53:41.459Z,13.00
2022-10-13T23:56:10.413Z,13.00
2022-10-13T23:58:38.733Z,13.00
